KDWH/DWH METAR and TAF weather

Enter ICAO airport designator
Station Type Date Time Source
KDWH METAR 2019/02/23 01:53 UTC NOAA

KDWH 230153Z 31003KT 1/4SM FG VV002 18/18 A2989 RMK AO2 SLP119 T01830183


Station Type Date Time Source
KDWH Decoded METAR 2019/02/23 01:53 UTC NOAA

HOUSTON HOOKS MEMORIAL, TX, United States (KDWH) 30-04N 95-33W 46M
Feb 22, 2019 - 08:53 PM EST / 2019.02.23 0153 UTC
Wind: from the NW (310 degrees) at 3 MPH (3 KT):0
Visibility: 1/4 mile(s):0
Sky conditions: obscured
Weather: fog
Temperature: 64.9 F (18.3 C)
Dew Point: 64.9 F (18.3 C)
Relative Humidity: 100%
Pressure (altimeter): 29.89 in. Hg (1012 hPa)
ob: KDWH 230153Z 31003KT 1/4SM FG VV002 18/18 A2989 RMK AO2 SLP119 T01830183
cycle: 2

Station Type Date Time Source
KDWH TAF 2017/02/07 15:09 UTC NOAA

TAF
AMD KDWH 071507Z 0715/0812 23010KT P6SM BKN015
TEMPO 0715/0719 SCT015
FM071900 25010KT P6SM SCT025
FM080100 22005KT P6SM SCT250
TEMPO 0807/0809 3SM BR BKN013
FM080900 VRB03KT 2SM BR OVC008


Example: see airport list